Terminal Aerodrome Forecast
Issued by NWS

Home | Current Version | Previous Version | Graphics & Text | Print | Product List | Glossary On
Versions: 1 2 3 4 5 6 7 8 9 10 11 12 13 14
000
FTUS43 KTOP 162300 RRA
TAFFOE
TAF
KFOE 162348Z 1700/1724 21017G24KT P6SM SCT150
     FM170100 31012KT P6SM BKN120
     FM170700 35006KT P6SM BKN080=

USA.gov is the U.S. government's official web portal to all federal, state and local government web resources and services.